createdAt,value
2024-02-05T00:00:26.137Z,12.30
2024-02-05T00:03:12.597Z,11.25
2024-02-05T00:05:52.697Z,12.65
2024-02-05T00:08:47.657Z,13.02
2024-02-05T00:11:27.667Z,11.07
2024-02-05T00:14:14.539Z,13.13
2024-02-05T00:16:55.348Z,13.25
2024-02-05T00:19:43.684Z,14.00
2024-02-05T00:22:23.729Z,12.77
2024-02-05T00:25:10.609Z,13.93
2024-02-05T00:27:50.710Z,14.65
2024-02-05T00:30:37.672Z,14.02
2024-02-05T00:33:17.784Z,12.95
2024-02-05T00:36:04.518Z,11.57
2024-02-05T00:38:44.617Z,12.05
2024-02-05T00:41:31.605Z,12.85
2024-02-05T00:44:13.142Z,12.40
2024-02-05T00:47:00.610Z,12.88
2024-02-05T00:49:47.728Z,12.88
2024-02-05T00:52:28.605Z,13.55
2024-02-05T00:55:15.691Z,15.43
2024-02-05T00:57:55.596Z,15.15
2024-02-05T01:00:42.699Z,13.55
2024-02-05T01:03:22.522Z,13.77
2024-02-05T01:06:09.941Z,14.90
2024-02-05T01:08:50.616Z,12.40
2024-02-05T01:11:38.437Z,14.05
2024-02-05T01:14:19.599Z,12.68
2024-02-05T01:17:07.743Z,14.10
2024-02-05T01:19:47.619Z,14.32
2024-02-05T01:22:35.654Z,15.23
2024-02-05T01:25:16.609Z,13.77
2024-02-05T01:28:04.543Z,13.50
2024-02-05T01:30:45.537Z,12.38
2024-02-05T01:33:33.165Z,12.65
2024-02-05T01:36:13.488Z,14.23
2024-02-05T01:39:00.679Z,15.05
2024-02-05T01:41:41.526Z,12.52
2024-02-05T01:44:28.654Z,14.80
2024-02-05T01:47:09.521Z,11.88
2024-02-05T01:50:03.497Z,12.73
2024-02-05T01:52:55.511Z,11.85
2024-02-05T01:55:36.587Z,12.88
2024-02-05T01:58:24.594Z,12.23
2024-02-05T02:01:07.434Z,11.90
2024-02-05T02:03:57.592Z,12.57
2024-02-05T02:06:38.979Z,13.43
2024-02-05T02:09:27.526Z,11.73
2024-02-05T02:12:08.538Z,11.52
2024-02-05T02:14:55.542Z,11.02
2024-02-05T02:17:39.695Z,12.60
2024-02-05T02:20:30.519Z,11.80
2024-02-05T02:23:19.451Z,10.70
2024-02-05T02:26:08.470Z,11.35
2024-02-05T02:28:48.611Z,10.95
2024-02-05T02:31:39.472Z,14.35
2024-02-05T02:34:28.651Z,12.88
2024-02-05T02:37:20.561Z,11.27
2024-02-05T02:40:10.959Z,10.65
2024-02-05T02:43:06.571Z,11.23
2024-02-05T02:45:47.815Z,10.63
2024-02-05T02:48:35.560Z,12.35
2024-02-05T02:51:22.760Z,12.18
2024-02-05T02:54:03.465Z,12.50
2024-02-05T02:56:50.648Z,13.45
2024-02-05T02:59:30.501Z,13.60
2024-02-05T03:02:17.513Z,11.98
2024-02-05T03:04:58.480Z,12.50
2024-02-05T03:07:45.537Z,13.85
2024-02-05T03:10:26.516Z,13.70
2024-02-05T03:13:15.728Z,13.73
2024-02-05T03:15:58.440Z,15.15
2024-02-05T03:18:45.603Z,16.67
2024-02-05T03:21:25.480Z,16.75
2024-02-05T03:24:12.516Z,17.00
2024-02-05T03:26:52.502Z,16.67
2024-02-05T03:29:39.542Z,16.33
2024-02-05T03:32:20.416Z,15.65
2024-02-05T03:35:08.630Z,14.10
2024-02-05T03:37:49.421Z,15.90
2024-02-05T03:40:37.301Z,15.98
2024-02-05T03:43:17.556Z,14.27
2024-02-05T03:46:04.614Z,13.20
2024-02-05T03:48:44.564Z,14.55
2024-02-05T03:51:31.559Z,15.32
2024-02-05T03:54:13.485Z,14.75
2024-02-05T03:57:00.616Z,13.90
2024-02-05T03:59:41.452Z,14.52
2024-02-05T04:02:28.706Z,13.90
2024-02-05T04:05:10.570Z,11.93
2024-02-05T04:07:58.761Z,13.23
2024-02-05T04:10:39.429Z,14.23
2024-02-05T04:13:26.570Z,12.13
2024-02-05T04:16:06.428Z,13.00
2024-02-05T04:18:53.550Z,11.05
2024-02-05T04:21:34.470Z,10.57
2024-02-05T04:24:21.532Z,12.70
2024-02-05T04:27:02.399Z,12.13
2024-02-05T04:29:49.498Z,12.38
2024-02-05T04:32:31.470Z,13.07
2024-02-05T04:35:18.680Z,12.95
2024-02-05T04:37:58.459Z,13.43
2024-02-05T04:40:45.553Z,12.15
2024-02-05T04:43:25.489Z,12.02
2024-02-05T04:46:15.542Z,12.63
2024-02-05T04:48:56.544Z,11.48
2024-02-05T04:51:43.516Z,11.90
2024-02-05T04:54:23.476Z,10.60
2024-02-05T04:57:10.509Z,14.15
2024-02-05T04:59:50.429Z,11.63
2024-02-05T05:02:37.509Z,13.02
2024-02-05T05:05:18.503Z,12.20
2024-02-05T05:08:05.463Z,11.88
2024-02-05T05:10:45.389Z,12.48
2024-02-05T05:13:32.587Z,15.07
2024-02-05T05:16:13.418Z,13.77
2024-02-05T05:19:02.565Z,13.82
2024-02-05T05:21:43.457Z,11.63
2024-02-05T05:24:30.450Z,9.52
2024-02-05T05:27:13.401Z,11.43
2024-02-05T05:30:00.421Z,9.48
2024-02-05T05:32:41.431Z,10.20
2024-02-05T05:35:28.463Z,9.60
2024-02-05T05:38:09.364Z,11.20
2024-02-05T05:40:56.461Z,12.48
2024-02-05T05:43:38.319Z,9.45
2024-02-05T05:46:27.784Z,12.40
2024-02-05T05:49:08.456Z,12.00
2024-02-05T05:51:55.453Z,13.32
2024-02-05T05:54:38.438Z,11.82
2024-02-05T05:57:25.472Z,12.75
2024-02-05T06:00:07.356Z,12.90
2024-02-05T06:02:54.610Z,11.63
2024-02-05T06:05:35.405Z,11.63
2024-02-05T06:08:22.533Z,10.05
2024-02-05T06:11:03.382Z,13.07
2024-02-05T06:13:50.745Z,12.38
2024-02-05T06:16:31.306Z,11.20
2024-02-05T06:19:18.577Z,12.15
2024-02-05T06:21:58.368Z,14.18
2024-02-05T06:24:45.425Z,11.18
2024-02-05T06:27:26.377Z,12.50
2024-02-05T06:30:14.553Z,12.48
2024-02-05T06:32:55.428Z,13.70
2024-02-05T06:35:42.363Z,11.32
2024-02-05T06:38:23.380Z,13.00
2024-02-05T06:41:10.419Z,12.85
2024-02-05T06:43:53.322Z,13.35
2024-02-05T06:46:40.461Z,12.50
2024-02-05T06:49:23.499Z,12.48
2024-02-05T06:52:10.880Z,13.13
2024-02-05T06:54:51.356Z,11.23
2024-02-05T06:57:38.486Z,12.23
2024-02-05T07:00:20.258Z,10.10
2024-02-05T07:03:07.483Z,12.75
2024-02-05T07:05:47.326Z,10.43
2024-02-05T07:08:34.497Z,10.88
2024-02-05T07:11:14.370Z,10.15
2024-02-05T07:14:01.343Z,9.25
2024-02-05T07:16:41.230Z,11.60
2024-02-05T07:19:29.226Z,12.00
2024-02-05T07:22:10.361Z,13.43
2024-02-05T07:24:50.954Z,12.55
2024-02-05T07:27:41.398Z,12.82
2024-02-05T07:30:31.146Z,11.40
2024-02-05T07:33:12.307Z,11.32
2024-02-05T07:36:00.541Z,11.60
2024-02-05T07:38:42.312Z,11.68
2024-02-05T07:41:29.371Z,10.63
2024-02-05T07:44:10.309Z,10.40
2024-02-05T07:46:57.360Z,9.57
2024-02-05T07:49:31.352Z,10.13
2024-02-05T07:51:58.605Z,10.48
2024-02-05T07:54:27.970Z,9.30
2024-02-05T07:56:58.646Z,10.13
2024-02-05T07:59:26.034Z,10.07
2024-02-05T08:01:53.251Z,10.73
2024-02-05T08:04:20.604Z,10.40
2024-02-05T08:06:48.362Z,9.73
2024-02-05T08:09:15.662Z,12.48
2024-02-05T08:11:43.752Z,9.68
2024-02-05T08:14:11.512Z,9.80
2024-02-05T08:16:38.986Z,11.88
2024-02-05T08:19:06.793Z,11.02
2024-02-05T08:21:34.272Z,11.13
2024-02-05T08:24:01.512Z,9.70
2024-02-05T08:26:29.314Z,12.68
2024-02-05T08:28:56.715Z,12.65
2024-02-05T08:31:24.064Z,11.50
2024-02-05T08:33:51.556Z,10.30
2024-02-05T08:36:19.263Z,10.52
2024-02-05T08:38:46.544Z,10.07
2024-02-05T08:41:13.967Z,10.15
2024-02-05T08:43:41.263Z,12.48
2024-02-05T08:46:09.541Z,10.80
2024-02-05T08:48:38.810Z,10.30
2024-02-05T08:51:06.325Z,10.13
2024-02-05T08:53:35.224Z,11.45
2024-02-05T08:56:02.443Z,9.73
2024-02-05T08:58:29.805Z,11.05
2024-02-05T09:00:57.145Z,9.65
2024-02-05T09:03:24.650Z,10.68
2024-02-05T09:05:53.298Z,12.32
2024-02-05T09:08:21.677Z,12.52
2024-02-05T09:10:48.972Z,15.10
2024-02-05T09:13:17.487Z,15.80
2024-02-05T09:15:45.002Z,12.13
2024-02-05T09:18:12.440Z,12.90
2024-02-05T09:20:39.621Z,12.68
2024-02-05T09:23:06.883Z,12.50
2024-02-05T09:25:34.248Z,10.85
2024-02-05T09:28:01.971Z,11.43
2024-02-05T09:30:29.159Z,11.00
2024-02-05T09:32:56.571Z,14.93
2024-02-05T09:35:23.790Z,14.63
2024-02-05T09:37:51.015Z,14.40
2024-02-05T09:40:18.300Z,13.77
2024-02-05T09:42:46.108Z,11.75
2024-02-05T09:45:14.063Z,11.90
2024-02-05T09:47:43.289Z,11.45
2024-02-05T09:50:12.573Z,13.25
2024-02-05T09:52:42.865Z,13.07
2024-02-05T09:55:12.878Z,13.07
2024-02-05T09:57:42.155Z,13.23
2024-02-05T10:00:12.374Z,13.93
2024-02-05T10:02:40.609Z,14.40
2024-02-05T10:05:12.365Z,14.18
2024-02-05T10:07:42.638Z,15.13
2024-02-05T10:10:11.333Z,13.50
2024-02-05T10:12:40.092Z,14.02
2024-02-05T10:15:09.064Z,13.27
2024-02-05T10:17:36.276Z,13.27
2024-02-05T10:20:04.961Z,13.38
2024-02-05T10:22:32.355Z,13.85
2024-02-05T10:25:03.137Z,12.35
2024-02-05T10:27:30.442Z,10.57
2024-02-05T10:30:02.761Z,11.20
2024-02-05T10:32:31.015Z,13.00
2024-02-05T10:34:59.339Z,15.00
2024-02-05T10:37:26.744Z,14.02
2024-02-05T10:39:57.103Z,12.82
2024-02-05T10:42:24.374Z,11.48
2024-02-05T10:44:52.364Z,14.27
2024-02-05T10:47:21.453Z,12.43
2024-02-05T10:49:49.148Z,14.38
2024-02-05T10:52:18.305Z,14.10
2024-02-05T10:54:48.016Z,15.40
2024-02-05T10:57:21.183Z,16.85
2024-02-05T10:59:48.603Z,14.70
2024-02-05T11:02:24.014Z,16.13
2024-02-05T11:04:53.931Z,16.83
2024-02-05T11:07:23.119Z,15.50
2024-02-05T11:09:51.479Z,14.43
2024-02-05T11:12:22.970Z,16.38
2024-02-05T11:14:53.579Z,16.92
2024-02-05T11:17:21.849Z,17.77
2024-02-05T11:19:52.060Z,16.98
2024-02-05T11:22:21.496Z,18.35
2024-02-05T11:24:49.088Z,16.85
2024-02-05T11:27:16.760Z,16.13
2024-02-05T11:29:44.840Z,15.57
2024-02-05T11:32:12.014Z,18.40
2024-02-05T11:34:44.099Z,15.75
2024-02-05T11:37:18.259Z,16.60
2024-02-05T11:39:46.813Z,16.67
2024-02-05T11:42:18.322Z,18.30
2024-02-05T11:44:48.546Z,14.48
2024-02-05T11:47:15.809Z,17.35
2024-02-05T11:49:45.965Z,18.77
2024-02-05T11:52:14.147Z,17.05
2024-02-05T11:54:41.819Z,16.50
2024-02-05T11:57:09.062Z,20.27
2024-02-05T11:59:36.407Z,18.45
2024-02-05T12:02:04.607Z,19.15
2024-02-05T12:04:32.981Z,19.48
2024-02-05T12:07:01.284Z,19.40
2024-02-05T12:09:28.531Z,17.83
2024-02-05T12:11:55.930Z,17.50
2024-02-05T12:14:23.415Z,17.13
2024-02-05T12:16:50.589Z,15.90
2024-02-05T12:19:22.003Z,16.92
2024-02-05T12:21:49.900Z,17.33
2024-02-05T12:24:18.495Z,16.77
2024-02-05T12:26:46.565Z,15.77
2024-02-05T12:29:24.363Z,16.83
2024-02-05T12:31:53.273Z,18.95
2024-02-05T12:34:21.067Z,18.63
2024-02-05T12:36:48.913Z,17.63
2024-02-05T12:39:16.243Z,16.30
2024-02-05T12:41:44.442Z,16.20
2024-02-05T12:44:19.276Z,20.42
2024-02-05T12:46:50.822Z,18.05
2024-02-05T12:49:19.968Z,15.95
2024-02-05T12:51:48.481Z,20.88
2024-02-05T12:54:16.389Z,18.67
2024-02-05T12:56:44.057Z,19.40
2024-02-05T12:59:13.329Z,18.17
2024-02-05T13:01:40.875Z,20.83
2024-02-05T13:04:09.463Z,20.52
2024-02-05T13:06:36.994Z,20.70
2024-02-05T13:09:09.738Z,21.48
2024-02-05T13:11:37.208Z,17.92
2024-02-05T13:14:04.568Z,17.58
2024-02-05T13:16:32.142Z,19.35
2024-02-05T13:19:01.155Z,18.50
2024-02-05T13:21:28.482Z,16.73
2024-02-05T13:23:55.576Z,15.65
2024-02-05T13:26:22.888Z,16.52
2024-02-05T13:28:50.070Z,18.58
2024-02-05T13:31:17.884Z,17.70
2024-02-05T13:33:45.324Z,18.75
2024-02-05T13:36:12.995Z,18.98
2024-02-05T13:38:40.836Z,18.98
2024-02-05T13:41:08.435Z,18.48
2024-02-05T13:43:35.672Z,19.15
2024-02-05T13:46:05.369Z,19.10
2024-02-05T13:48:33.514Z,18.40
2024-02-05T13:51:02.385Z,18.88
2024-02-05T13:53:29.558Z,21.17
2024-02-05T13:55:56.961Z,17.40
2024-02-05T13:58:24.361Z,17.77
2024-02-05T14:00:51.840Z,17.50
2024-02-05T14:03:19.215Z,17.38
2024-02-05T14:05:46.683Z,17.58
2024-02-05T14:08:14.477Z,16.17
2024-02-05T14:10:42.654Z,17.20
2024-02-05T14:13:10.032Z,17.27
2024-02-05T14:15:37.159Z,17.02
2024-02-05T14:18:04.980Z,16.40
2024-02-05T14:20:32.197Z,16.48
2024-02-05T14:22:59.463Z,16.55
2024-02-05T14:25:26.860Z,15.75
2024-02-05T14:27:55.957Z,14.75
2024-02-05T14:30:23.464Z,16.02
2024-02-05T14:32:51.390Z,14.27
2024-02-05T14:35:18.836Z,15.38
2024-02-05T14:37:46.317Z,15.13
2024-02-05T14:40:13.642Z,14.45
2024-02-05T14:42:41.489Z,15.75
2024-02-05T14:45:09.246Z,15.00
2024-02-05T14:47:36.593Z,16.40
2024-02-05T14:50:06.186Z,16.15
2024-02-05T14:52:34.578Z,15.32
2024-02-05T14:55:02.954Z,15.93
2024-02-05T14:57:30.326Z,15.65
2024-02-05T14:59:57.492Z,17.67
2024-02-05T15:02:24.853Z,17.63
2024-02-05T15:04:52.287Z,17.05
2024-02-05T15:07:19.697Z,17.92
2024-02-05T15:09:47.256Z,17.73
2024-02-05T15:12:14.704Z,17.27
2024-02-05T15:14:41.899Z,17.40
2024-02-05T15:17:09.321Z,19.13
2024-02-05T15:19:36.766Z,20.15
2024-02-05T15:22:04.973Z,20.45
2024-02-05T15:24:32.209Z,20.45
2024-02-05T15:26:59.523Z,21.85
2024-02-05T15:29:26.725Z,19.48
2024-02-05T15:31:55.890Z,20.58
2024-02-05T15:34:23.440Z,18.23
2024-02-05T15:36:50.672Z,18.88
2024-02-05T15:39:17.874Z,18.60
2024-02-05T15:41:45.088Z,17.67
2024-02-05T15:44:12.337Z,18.25
2024-02-05T15:46:39.477Z,16.52
2024-02-05T15:49:06.938Z,18.15
2024-02-05T15:51:34.090Z,17.45
2024-02-05T15:54:01.586Z,19.38
2024-02-05T15:56:36.544Z,18.77
2024-02-05T15:59:07.190Z,20.58
2024-02-05T16:01:38.269Z,19.13
2024-02-05T16:04:08.847Z,20.73
2024-02-05T16:06:36.301Z,21.60
2024-02-05T16:09:03.663Z,18.02
2024-02-05T16:11:32.871Z,18.45
2024-02-05T16:14:01.507Z,16.30
2024-02-05T16:16:28.743Z,16.45
2024-02-05T16:19:00.425Z,15.52
2024-02-05T16:21:28.780Z,16.55
2024-02-05T16:23:56.031Z,20.30
2024-02-05T16:26:23.237Z,18.20
2024-02-05T16:28:50.392Z,19.38
2024-02-05T16:31:20.091Z,18.08
2024-02-05T16:33:49.477Z,19.85
2024-02-05T16:36:18.818Z,16.67
2024-02-05T16:38:47.849Z,20.20
2024-02-05T16:41:15.033Z,18.45
2024-02-05T16:43:42.467Z,18.80
2024-02-05T16:46:10.634Z,15.55
2024-02-05T16:48:39.203Z,15.52
2024-02-05T16:51:06.997Z,15.40
2024-02-05T16:53:34.260Z,18.63
2024-02-05T16:56:01.403Z,18.50
2024-02-05T16:58:28.894Z,18.92
2024-02-05T17:00:56.187Z,17.60
2024-02-05T17:03:23.511Z,17.38
2024-02-05T17:05:50.737Z,17.35
2024-02-05T17:08:18.062Z,18.08
2024-02-05T17:10:46.594Z,18.92
2024-02-05T17:13:14.042Z,16.05
2024-02-05T17:15:41.909Z,16.23
2024-02-05T17:18:10.082Z,20.35
2024-02-05T17:20:37.457Z,18.10
2024-02-05T17:23:04.764Z,19.63
2024-02-05T17:25:32.124Z,18.45
2024-02-05T17:27:59.514Z,17.55
2024-02-05T17:30:26.794Z,19.55
2024-02-05T17:32:54.032Z,19.33
2024-02-05T17:35:21.921Z,16.63
2024-02-05T17:37:49.096Z,16.80
2024-02-05T17:40:16.329Z,17.13
2024-02-05T17:42:43.539Z,18.23
2024-02-05T17:45:11.239Z,18.90
2024-02-05T17:47:38.498Z,23.55
2024-02-05T17:50:06.376Z,23.13
2024-02-05T17:52:33.917Z,21.42
2024-02-05T17:55:03.058Z,23.65
2024-02-05T17:57:30.369Z,21.67
2024-02-05T17:59:58.179Z,23.75
2024-02-05T18:02:25.925Z,23.27
2024-02-05T18:04:53.329Z,24.48
2024-02-05T18:07:21.057Z,23.38
2024-02-05T18:09:48.519Z,22.00
2024-02-05T18:12:15.747Z,21.92
2024-02-05T18:14:43.726Z,20.95
2024-02-05T18:17:10.850Z,20.83
2024-02-05T18:19:38.178Z,19.67
2024-02-05T18:22:05.754Z,20.10
2024-02-05T18:24:38.163Z,21.02
2024-02-05T18:27:13.374Z,17.75
2024-02-05T18:29:40.577Z,16.63
2024-02-05T18:32:08.037Z,20.40
2024-02-05T18:34:35.304Z,18.85
2024-02-05T18:37:02.698Z,17.70
2024-02-05T18:39:31.615Z,21.42
2024-02-05T18:41:58.964Z,18.23
2024-02-05T18:44:26.179Z,17.73
2024-02-05T18:46:53.448Z,19.35
2024-02-05T18:49:22.585Z,20.10
2024-02-05T18:51:49.966Z,19.15
2024-02-05T18:54:17.180Z,20.17
2024-02-05T18:56:44.407Z,19.98
2024-02-05T18:59:11.614Z,19.55
2024-02-05T19:01:39.043Z,20.70
2024-02-05T19:04:06.396Z,17.08
2024-02-05T19:06:33.725Z,20.38
2024-02-05T19:09:01.209Z,20.50
2024-02-05T19:11:28.355Z,19.85
2024-02-05T19:13:55.617Z,17.27
2024-02-05T19:16:22.701Z,17.60
2024-02-05T19:18:50.052Z,19.88
2024-02-05T19:21:17.338Z,18.30
2024-02-05T19:23:45.648Z,21.15
2024-02-05T19:26:12.906Z,19.00
2024-02-05T19:28:40.252Z,20.55
2024-02-05T19:31:07.447Z,19.70
2024-02-05T19:33:35.317Z,15.82
2024-02-05T19:36:02.625Z,15.80
2024-02-05T19:38:29.784Z,15.82
2024-02-05T19:40:56.953Z,17.27
2024-02-05T19:43:24.419Z,18.88
2024-02-05T19:45:51.595Z,17.38
2024-02-05T19:48:18.934Z,16.17
2024-02-05T19:50:46.159Z,17.92
2024-02-05T19:53:13.430Z,17.02
2024-02-05T19:55:40.733Z,18.60
2024-02-05T19:58:08.063Z,17.17
2024-02-05T20:00:38.662Z,17.70
2024-02-05T20:03:08.169Z,16.45
2024-02-05T20:05:35.665Z,20.48
2024-02-05T20:08:03.252Z,22.65
2024-02-05T20:10:30.486Z,24.08
2024-02-05T20:12:58.489Z,24.40
2024-02-05T20:15:25.999Z,24.20
2024-02-05T20:17:57.249Z,23.00
2024-02-05T20:20:25.791Z,22.55
2024-02-05T20:22:53.019Z,23.13
2024-02-05T20:25:21.000Z,23.83
2024-02-05T20:27:48.374Z,19.58
2024-02-05T20:30:15.768Z,21.90
2024-02-05T20:32:42.952Z,20.98
2024-02-05T20:35:10.939Z,18.02
2024-02-05T20:37:39.770Z,17.65
2024-02-05T20:40:08.947Z,19.45
2024-02-05T20:42:36.367Z,18.73
2024-02-05T20:45:04.709Z,17.95
2024-02-05T20:47:31.902Z,20.40
2024-02-05T20:49:59.585Z,20.63
2024-02-05T20:52:26.972Z,21.10
2024-02-05T20:54:54.342Z,21.98
2024-02-05T20:57:21.575Z,17.33
2024-02-05T20:59:48.750Z,21.27
2024-02-05T21:02:15.921Z,18.20
2024-02-05T21:04:43.309Z,20.50
2024-02-05T21:07:10.564Z,16.48
2024-02-05T21:09:37.870Z,16.48
2024-02-05T21:12:05.450Z,17.90
2024-02-05T21:14:32.708Z,20.73
2024-02-05T21:17:03.459Z,17.98
2024-02-05T21:19:31.427Z,20.05
2024-02-05T21:21:58.890Z,19.90
2024-02-05T21:24:26.814Z,19.38
2024-02-05T21:26:54.147Z,17.58
2024-02-05T21:29:21.537Z,18.63
2024-02-05T21:31:48.807Z,18.50
2024-02-05T21:34:16.032Z,16.33
2024-02-05T21:36:47.892Z,21.55
2024-02-05T21:39:15.823Z,20.98
2024-02-05T21:41:43.256Z,19.70
2024-02-05T21:44:10.604Z,18.52
2024-02-05T21:46:37.805Z,20.88
2024-02-05T21:49:05.363Z,21.13
2024-02-05T21:51:32.656Z,16.75
2024-02-05T21:53:59.906Z,21.67
2024-02-05T21:56:27.388Z,21.58
2024-02-05T21:58:54.665Z,18.48
2024-02-05T22:01:22.029Z,17.92
2024-02-05T22:03:49.429Z,18.00
2024-02-05T22:06:16.875Z,19.65
2024-02-05T22:08:44.169Z,17.67
2024-02-05T22:11:11.906Z,17.98
2024-02-05T22:13:39.282Z,17.83
2024-02-05T22:16:06.725Z,19.42
2024-02-05T22:18:34.870Z,17.92
2024-02-05T22:21:02.062Z,21.30
2024-02-05T22:23:29.807Z,21.08
2024-02-05T22:25:57.140Z,20.15
2024-02-05T22:28:24.714Z,20.92
2024-02-05T22:30:52.924Z,17.92
2024-02-05T22:33:20.361Z,19.60
2024-02-05T22:35:48.564Z,17.70
2024-02-05T22:38:16.304Z,18.05
2024-02-05T22:40:44.103Z,19.42
2024-02-05T22:43:14.077Z,17.13
2024-02-05T22:45:43.331Z,18.30
2024-02-05T22:48:10.741Z,18.40
2024-02-05T22:50:38.097Z,18.73
2024-02-05T22:53:05.723Z,19.23
2024-02-05T22:55:33.135Z,16.25
2024-02-05T22:58:00.408Z,19.55
2024-02-05T23:00:28.756Z,17.60
2024-02-05T23:02:56.826Z,18.85
2024-02-05T23:05:25.107Z,16.30
2024-02-05T23:07:53.000Z,17.63
2024-02-05T23:10:20.945Z,15.75
2024-02-05T23:12:48.538Z,19.83
2024-02-05T23:15:16.079Z,18.45
2024-02-05T23:17:43.701Z,17.55
2024-02-05T23:20:11.614Z,18.50
2024-02-05T23:22:39.255Z,16.80
2024-02-05T23:25:07.582Z,15.70
2024-02-05T23:27:35.654Z,19.55
2024-02-05T23:30:03.651Z,17.30
2024-02-05T23:32:31.309Z,19.42
2024-02-05T23:34:59.733Z,18.10
2024-02-05T23:37:26.900Z,16.48
2024-02-05T23:39:54.246Z,15.95
2024-02-05T23:42:21.420Z,16.05
2024-02-05T23:44:48.661Z,18.20
2024-02-05T23:47:17.018Z,19.25
2024-02-05T23:49:44.372Z,19.83
2024-02-05T23:52:12.523Z,18.55
2024-02-05T23:54:40.039Z,18.50
2024-02-05T23:57:07.225Z,20.00
2024-02-05T23:59:34.419Z,16.42
